createdAt,value
2018-10-06T00:00:01.241Z,17.80
2018-10-06T00:02:29.652Z,17.70
2018-10-06T00:04:57.936Z,17.70
2018-10-06T00:07:26.552Z,17.70
2018-10-06T00:09:54.927Z,17.70
2018-10-06T00:12:23.232Z,17.60
2018-10-06T00:14:51.469Z,17.70
2018-10-06T00:17:20.744Z,17.60
2018-10-06T00:19:48.995Z,17.60
2018-10-06T00:22:17.350Z,17.50
2018-10-06T00:24:45.621Z,17.50
2018-10-06T00:27:13.930Z,17.50
2018-10-06T00:29:42.190Z,17.50
2018-10-06T00:32:10.469Z,17.50
2018-10-06T00:34:38.829Z,17.50
2018-10-06T00:37:07.097Z,17.50
2018-10-06T00:39:35.386Z,17.50
2018-10-06T00:42:03.661Z,17.40
2018-10-06T00:44:31.953Z,17.40
2018-10-06T00:47:00.208Z,17.40
2018-10-06T00:49:28.494Z,17.30
2018-10-06T00:51:56.786Z,17.30
2018-10-06T00:54:25.102Z,17.30
2018-10-06T00:56:53.420Z,17.30
2018-10-06T00:59:22.513Z,17.30
2018-10-06T01:01:50.802Z,17.30
2018-10-06T01:04:19.108Z,17.20
2018-10-06T01:06:47.429Z,17.20
2018-10-06T01:09:15.710Z,17.20
2018-10-06T01:11:44.025Z,17.20
2018-10-06T01:14:12.300Z,17.20
2018-10-06T01:16:40.625Z,17.20
2018-10-06T01:19:09.081Z,17.10
2018-10-06T01:21:37.357Z,17.10
2018-10-06T01:24:05.710Z,17.10
2018-10-06T01:26:33.932Z,17.10
2018-10-06T01:29:02.236Z,17.10
2018-10-06T01:31:30.500Z,17.00
2018-10-06T01:33:58.913Z,17.00
2018-10-06T01:36:27.169Z,17.00
2018-10-06T01:38:55.484Z,17.00
2018-10-06T01:41:23.826Z,17.00
2018-10-06T01:43:52.076Z,17.00
2018-10-06T01:46:20.388Z,17.00
2018-10-06T01:48:48.689Z,16.90
2018-10-06T01:51:16.970Z,16.90
2018-10-06T01:53:45.263Z,16.90
2018-10-06T01:56:13.543Z,16.90
2018-10-06T01:58:41.816Z,16.90
2018-10-06T02:01:10.157Z,16.80
2018-10-06T02:03:38.472Z,16.80
2018-10-06T02:06:06.957Z,16.80
2018-10-06T02:08:35.233Z,16.80
2018-10-06T02:11:03.537Z,16.80
2018-10-06T02:13:31.809Z,16.80
2018-10-06T02:16:00.091Z,16.80
2018-10-06T02:18:28.352Z,16.80
2018-10-06T02:20:56.637Z,16.70
2018-10-06T02:23:24.914Z,16.70
2018-10-06T02:25:53.206Z,16.70
2018-10-06T02:28:21.525Z,16.70
2018-10-06T02:30:49.809Z,16.70
2018-10-06T02:33:18.102Z,16.70
2018-10-06T02:35:46.394Z,16.60
2018-10-06T02:38:14.679Z,16.60
2018-10-06T02:40:42.948Z,16.50
2018-10-06T02:43:11.223Z,16.50
2018-10-06T02:45:39.542Z,16.60
2018-10-06T02:48:07.793Z,16.50
2018-10-06T02:50:36.073Z,16.60
2018-10-06T02:53:04.372Z,16.50
2018-10-06T02:55:32.702Z,16.50
2018-10-06T02:58:00.947Z,16.50
2018-10-06T03:00:29.281Z,16.50
2018-10-06T03:02:57.541Z,16.50
2018-10-06T03:05:25.822Z,16.50
2018-10-06T03:07:54.077Z,16.50
2018-10-06T03:10:22.437Z,16.50
2018-10-06T03:12:50.730Z,16.50
2018-10-06T03:15:19.281Z,16.40
2018-10-06T03:17:47.536Z,16.40
2018-10-06T03:20:15.817Z,16.40
2018-10-06T03:22:44.089Z,16.40
2018-10-06T03:25:12.382Z,16.40
2018-10-06T03:27:40.662Z,16.30
2018-10-06T03:30:08.984Z,16.40
2018-10-06T03:32:37.239Z,16.30
2018-10-06T03:35:05.968Z,16.30
2018-10-06T03:37:34.422Z,16.30
2018-10-06T03:40:02.757Z,16.30
2018-10-06T03:42:31.040Z,16.30
2018-10-06T03:44:59.317Z,16.30
2018-10-06T03:47:27.572Z,16.20
2018-10-06T03:49:55.879Z,16.20
2018-10-06T03:52:24.182Z,16.20
2018-10-06T03:54:52.445Z,16.20
2018-10-06T03:57:20.730Z,16.20
2018-10-06T03:59:49.029Z,16.20
2018-10-06T04:02:17.320Z,16.20
2018-10-06T04:04:45.583Z,16.20
2018-10-06T04:07:13.901Z,16.20
2018-10-06T04:09:42.176Z,16.10
2018-10-06T04:12:10.470Z,16.10
2018-10-06T04:14:38.728Z,16.10
2018-10-06T04:17:07.076Z,16.10
2018-10-06T04:19:35.367Z,16.10
2018-10-06T04:22:03.644Z,16.10
2018-10-06T04:24:31.919Z,16.10
2018-10-06T04:27:00.225Z,16.10
2018-10-06T04:29:28.485Z,16.10
2018-10-06T04:31:56.798Z,16.00
2018-10-06T04:34:25.069Z,16.00
2018-10-06T04:36:53.348Z,16.00
2018-10-06T04:39:21.614Z,16.00
2018-10-06T04:41:49.873Z,16.00
2018-10-06T04:44:18.154Z,16.00
2018-10-06T04:46:46.449Z,16.00
2018-10-06T04:49:14.734Z,15.90
2018-10-06T04:51:43.061Z,15.90
2018-10-06T04:54:11.340Z,15.90
2018-10-06T04:56:39.621Z,15.90
2018-10-06T04:59:07.894Z,15.90
2018-10-06T05:01:36.181Z,15.90
2018-10-06T05:04:04.437Z,15.90
2018-10-06T05:06:32.705Z,15.90
2018-10-06T05:09:00.957Z,15.80
2018-10-06T05:11:29.249Z,15.80
2018-10-06T05:13:57.536Z,15.80
2018-10-06T05:16:25.790Z,15.80
2018-10-06T05:18:54.057Z,15.80
2018-10-06T05:21:22.344Z,15.80
2018-10-06T05:23:50.637Z,15.80
2018-10-06T05:26:18.934Z,15.70
2018-10-06T05:28:47.264Z,15.70
2018-10-06T05:31:15.557Z,15.70
2018-10-06T05:33:43.842Z,15.70
2018-10-06T05:36:12.112Z,15.70
2018-10-06T05:38:40.381Z,15.70
2018-10-06T05:41:08.729Z,15.70
2018-10-06T05:43:37.014Z,15.60
2018-10-06T05:46:05.413Z,15.60
2018-10-06T05:48:33.875Z,15.60
2018-10-06T05:51:02.153Z,15.60
2018-10-06T05:53:30.547Z,15.60
2018-10-06T05:55:58.841Z,15.60
2018-10-06T05:58:27.092Z,15.60
2018-10-06T06:00:55.377Z,15.60
2018-10-06T06:03:23.637Z,15.60
2018-10-06T06:05:51.913Z,15.60
2018-10-06T06:08:20.185Z,15.60
2018-10-06T06:10:48.688Z,15.60
2018-10-06T06:13:16.940Z,15.60
2018-10-06T06:15:45.268Z,15.50
2018-10-06T06:18:13.508Z,15.50
2018-10-06T06:20:41.795Z,15.60
2018-10-06T06:23:10.140Z,15.60
2018-10-06T06:25:38.433Z,15.60
2018-10-06T06:28:06.793Z,15.60
2018-10-06T06:30:35.041Z,15.60
2018-10-06T06:33:03.330Z,15.60
2018-10-06T06:35:31.614Z,15.60
2018-10-06T06:37:59.888Z,15.60
2018-10-06T06:40:28.181Z,15.60
2018-10-06T06:42:56.481Z,15.70
2018-10-06T06:45:24.774Z,15.70
2018-10-06T06:47:53.043Z,15.70
2018-10-06T06:50:21.423Z,15.70
2018-10-06T06:52:49.710Z,15.70
2018-10-06T06:55:17.991Z,15.70
2018-10-06T06:57:46.312Z,15.70
2018-10-06T07:00:14.657Z,15.80
2018-10-06T07:02:43.507Z,15.80
2018-10-06T07:05:13.111Z,15.80
2018-10-06T07:07:41.469Z,15.80
2018-10-06T07:10:09.737Z,15.80
2018-10-06T07:12:38.077Z,15.80
2018-10-06T07:15:06.425Z,15.80
2018-10-06T07:17:34.737Z,15.80
2018-10-06T07:20:03.013Z,15.80
2018-10-06T07:22:31.285Z,15.80
2018-10-06T07:24:59.568Z,15.80
2018-10-06T07:27:27.958Z,15.80
2018-10-06T07:29:56.271Z,15.80
2018-10-06T07:32:24.550Z,15.80
2018-10-06T07:34:52.847Z,15.80
2018-10-06T07:37:21.321Z,15.80
2018-10-06T07:39:49.617Z,15.80
2018-10-06T07:42:17.875Z,15.80
2018-10-06T07:44:46.141Z,15.80
2018-10-06T07:47:14.442Z,15.80
2018-10-06T07:49:42.713Z,15.80
2018-10-06T07:52:11.011Z,15.80
2018-10-06T07:54:39.278Z,15.80
2018-10-06T07:57:07.581Z,15.80
2018-10-06T07:59:35.846Z,15.80
2018-10-06T08:02:04.105Z,15.80
2018-10-06T08:04:32.586Z,15.90
2018-10-06T08:07:00.858Z,15.90
2018-10-06T08:09:29.145Z,15.90
2018-10-06T08:11:57.422Z,15.90
2018-10-06T08:14:25.693Z,15.90
2018-10-06T08:16:53.986Z,16.00
2018-10-06T08:19:22.279Z,16.00
2018-10-06T08:21:50.948Z,16.00
2018-10-06T08:24:19.243Z,16.10
2018-10-06T08:26:47.520Z,16.10
2018-10-06T08:29:15.792Z,16.10
2018-10-06T08:31:44.077Z,16.20
2018-10-06T08:34:12.353Z,16.20
2018-10-06T08:36:40.652Z,16.20
2018-10-06T08:39:09.494Z,16.30
2018-10-06T08:41:37.741Z,16.30
2018-10-06T08:44:06.026Z,16.40
2018-10-06T08:46:34.372Z,16.40
2018-10-06T08:49:02.838Z,16.40
2018-10-06T08:51:31.144Z,16.50
2018-10-06T08:53:59.392Z,16.60
2018-10-06T08:56:27.687Z,16.60
2018-10-06T08:58:55.960Z,16.70
2018-10-06T09:01:25.010Z,16.70
2018-10-06T09:03:53.630Z,16.80
2018-10-06T09:06:21.921Z,16.90
2018-10-06T09:08:50.398Z,17.00
2018-10-06T09:11:18.682Z,17.10
2018-10-06T09:13:47.023Z,17.10
2018-10-06T09:16:15.299Z,17.20
2018-10-06T09:18:43.552Z,17.20
2018-10-06T09:21:11.821Z,17.30
2018-10-06T09:23:40.097Z,17.40
2018-10-06T09:26:08.429Z,17.40
2018-10-06T09:28:36.693Z,17.40
2018-10-06T09:31:05.007Z,17.40
2018-10-06T09:33:33.331Z,17.50
2018-10-06T09:36:01.615Z,17.50
2018-10-06T09:38:29.892Z,17.50
2018-10-06T09:40:58.161Z,17.60
2018-10-06T09:43:26.460Z,17.60
2018-10-06T09:45:54.696Z,17.60
2018-10-06T09:48:23.041Z,17.60
2018-10-06T09:50:51.319Z,17.70
2018-10-06T09:53:19.607Z,17.80
2018-10-06T09:55:47.864Z,17.90
2018-10-06T09:58:16.160Z,17.90
2018-10-06T10:00:49.801Z,18.00
2018-10-06T10:03:20.479Z,18.00
2018-10-06T10:05:50.670Z,18.10
2018-10-06T10:08:19.025Z,18.10
2018-10-06T10:10:48.157Z,18.10
2018-10-06T10:13:16.527Z,18.10
2018-10-06T10:15:44.806Z,18.10
2018-10-06T10:18:13.178Z,18.10
2018-10-06T10:20:41.473Z,18.10
2018-10-06T10:23:09.971Z,18.10
2018-10-06T10:25:38.394Z,18.20
2018-10-06T10:28:06.749Z,18.20
2018-10-06T10:30:35.224Z,18.30
2018-10-06T10:33:03.532Z,18.30
2018-10-06T10:35:31.811Z,18.30
2018-10-06T10:38:00.104Z,18.30
2018-10-06T10:40:28.352Z,18.40
2018-10-06T10:42:56.672Z,18.40
2018-10-06T10:45:24.917Z,18.40
2018-10-06T10:47:53.220Z,18.50
2018-10-06T10:50:21.533Z,18.60
2018-10-06T10:52:49.814Z,18.60
2018-10-06T10:55:18.086Z,18.70
2018-10-06T10:57:46.425Z,18.80
2018-10-06T11:00:14.734Z,19.00
2018-10-06T11:02:42.905Z,19.10
2018-10-06T11:05:11.161Z,19.30
2018-10-06T11:07:39.473Z,19.30
2018-10-06T11:10:07.816Z,19.40
2018-10-06T11:12:36.061Z,19.60
2018-10-06T11:15:04.385Z,19.80
2018-10-06T11:17:32.701Z,19.90
2018-10-06T11:20:01.041Z,20.00
2018-10-06T11:22:29.330Z,20.10
2018-10-06T11:24:57.664Z,20.20
2018-10-06T11:27:25.884Z,20.30
2018-10-06T11:29:54.148Z,20.40
2018-10-06T11:32:22.515Z,20.50
2018-10-06T11:34:50.980Z,20.60
2018-10-06T11:37:19.360Z,20.70
2018-10-06T11:39:47.538Z,20.80
2018-10-06T11:42:15.949Z,20.90
2018-10-06T11:44:44.243Z,21.10
2018-10-06T11:47:12.549Z,21.20
2018-10-06T11:49:40.850Z,21.20
2018-10-06T11:52:09.146Z,21.30
2018-10-06T11:54:37.426Z,21.40
2018-10-06T11:57:05.739Z,21.50
2018-10-06T11:59:34.037Z,21.70
2018-10-06T12:02:02.324Z,21.70
2018-10-06T12:04:30.791Z,21.90
2018-10-06T12:06:59.104Z,21.90
2018-10-06T12:09:27.405Z,21.90
2018-10-06T12:11:55.713Z,21.90
2018-10-06T12:14:24.034Z,22.10
2018-10-06T12:16:52.331Z,22.00
2018-10-06T12:19:20.621Z,22.00
2018-10-06T12:21:48.901Z,22.10
2018-10-06T12:24:17.185Z,22.10
2018-10-06T12:26:45.493Z,22.00
2018-10-06T12:29:13.790Z,21.90
2018-10-06T12:31:42.123Z,21.90
2018-10-06T12:34:10.417Z,21.90
2018-10-06T12:36:38.745Z,21.90
2018-10-06T12:39:07.286Z,21.90
2018-10-06T12:41:35.706Z,21.90
2018-10-06T12:44:04.277Z,21.90
2018-10-06T12:46:32.610Z,21.80
2018-10-06T12:49:00.925Z,21.80
2018-10-06T12:51:29.228Z,21.80
2018-10-06T12:53:57.476Z,21.80
2018-10-06T12:56:25.777Z,21.80
2018-10-06T12:58:54.057Z,21.80
2018-10-06T13:01:22.453Z,21.90
2018-10-06T13:03:50.758Z,21.90
2018-10-06T13:06:19.081Z,21.80
2018-10-06T13:08:47.433Z,21.80
2018-10-06T13:11:15.729Z,21.80
2018-10-06T13:13:44.515Z,21.90
2018-10-06T13:16:12.800Z,22.30
2018-10-06T13:18:41.139Z,23.00
2018-10-06T13:21:09.482Z,23.40
2018-10-06T13:23:37.775Z,23.60
2018-10-06T13:26:06.064Z,24.00
2018-10-06T13:28:34.340Z,24.20
2018-10-06T13:31:02.654Z,24.50
2018-10-06T13:33:30.989Z,24.60
2018-10-06T13:35:59.283Z,24.70
2018-10-06T13:38:27.615Z,24.80
2018-10-06T13:40:57.388Z,25.00
2018-10-06T13:43:25.685Z,25.10
2018-10-06T13:45:53.969Z,25.10
2018-10-06T13:48:22.270Z,25.30
2018-10-06T13:50:50.596Z,25.40
2018-10-06T13:53:18.858Z,25.40
2018-10-06T13:55:47.171Z,25.40
2018-10-06T13:58:15.507Z,25.50
2018-10-06T14:00:43.796Z,25.60
2018-10-06T14:03:12.074Z,25.40
2018-10-06T14:05:40.461Z,25.40
2018-10-06T14:08:08.735Z,25.50
2018-10-06T14:10:37.036Z,25.40
2018-10-06T14:13:05.328Z,25.40
2018-10-06T14:15:33.625Z,25.30
2018-10-06T14:18:01.921Z,25.30
2018-10-06T14:20:30.226Z,25.30
2018-10-06T14:22:58.545Z,25.30
2018-10-06T14:25:26.876Z,25.30
2018-10-06T14:27:55.212Z,25.40
2018-10-06T14:30:23.509Z,25.40
2018-10-06T14:32:51.805Z,25.40
2018-10-06T14:35:20.302Z,25.50
2018-10-06T14:37:48.637Z,25.40
2018-10-06T14:40:16.972Z,25.30
2018-10-06T14:42:45.265Z,25.30
2018-10-06T14:45:13.668Z,25.30
2018-10-06T14:47:42.027Z,25.30
2018-10-06T14:50:10.238Z,25.40
2018-10-06T14:52:38.485Z,25.40
2018-10-06T14:55:08.107Z,25.40
2018-10-06T14:57:36.529Z,25.40
2018-10-06T15:00:05.715Z,25.30
2018-10-06T15:02:34.013Z,25.30
2018-10-06T15:05:02.377Z,25.30
2018-10-06T15:07:30.661Z,25.30
2018-10-06T15:09:58.983Z,25.40
2018-10-06T15:12:27.276Z,25.20
2018-10-06T15:14:55.599Z,25.20
2018-10-06T15:17:23.937Z,25.20
2018-10-06T15:19:52.204Z,25.20
2018-10-06T15:22:20.491Z,25.20
2018-10-06T15:24:48.830Z,25.10
2018-10-06T15:27:17.120Z,25.10
2018-10-06T15:29:45.451Z,25.10
2018-10-06T15:32:13.750Z,25.00
2018-10-06T15:34:42.058Z,25.00
2018-10-06T15:37:10.421Z,25.00
2018-10-06T15:39:38.737Z,25.00
2018-10-06T15:42:07.129Z,25.00
2018-10-06T15:44:35.417Z,25.00
2018-10-06T15:47:03.868Z,25.00
2018-10-06T15:49:32.181Z,24.90
2018-10-06T15:52:00.465Z,25.00
2018-10-06T15:54:28.748Z,24.90
2018-10-06T15:56:57.057Z,24.90
2018-10-06T15:59:25.408Z,24.90
2018-10-06T16:01:53.705Z,24.80
2018-10-06T16:04:21.964Z,24.80
2018-10-06T16:06:50.293Z,24.80
2018-10-06T16:09:18.601Z,24.80
2018-10-06T16:11:46.901Z,24.80
2018-10-06T16:14:15.199Z,24.70
2018-10-06T16:16:43.574Z,24.70
2018-10-06T16:19:11.862Z,24.70
2018-10-06T16:21:40.225Z,24.70
2018-10-06T16:24:08.469Z,24.70
2018-10-06T16:26:36.761Z,24.60
2018-10-06T16:29:05.181Z,24.60
2018-10-06T16:31:33.433Z,24.60
2018-10-06T16:34:01.734Z,24.60
2018-10-06T16:36:29.995Z,24.50
2018-10-06T16:38:58.316Z,24.40
2018-10-06T16:41:26.873Z,24.40
2018-10-06T16:43:55.105Z,24.40
2018-10-06T16:46:23.390Z,24.20
2018-10-06T16:48:51.716Z,23.80
2018-10-06T16:51:20.007Z,23.70
2018-10-06T16:53:48.290Z,23.80
2018-10-06T16:56:16.636Z,23.90
2018-10-06T16:58:44.925Z,23.90
2018-10-06T17:01:13.231Z,23.90
2018-10-06T17:03:41.498Z,23.90
2018-10-06T17:06:09.865Z,23.90
2018-10-06T17:08:38.194Z,23.90
2018-10-06T17:11:07.289Z,23.90
2018-10-06T17:13:35.562Z,23.90
2018-10-06T17:16:03.925Z,23.80
2018-10-06T17:18:32.294Z,23.80
2018-10-06T17:21:00.533Z,23.80
2018-10-06T17:23:28.800Z,23.80
2018-10-06T17:25:57.071Z,23.80
2018-10-06T17:28:25.373Z,23.70
2018-10-06T17:30:53.721Z,23.70
2018-10-06T17:33:22.030Z,23.70
2018-10-06T17:35:50.276Z,23.60
2018-10-06T17:38:18.827Z,23.60
2018-10-06T17:40:47.125Z,23.60
2018-10-06T17:43:15.454Z,23.60
2018-10-06T17:45:43.745Z,23.50
2018-10-06T17:48:12.013Z,23.50
2018-10-06T17:50:40.382Z,23.50
2018-10-06T17:53:08.593Z,23.40
2018-10-06T17:55:36.883Z,23.40
2018-10-06T17:58:05.988Z,23.30
2018-10-06T18:00:35.878Z,23.30
2018-10-06T18:03:05.095Z,23.30
2018-10-06T18:05:34.379Z,23.30
2018-10-06T18:08:09.474Z,23.30
2018-10-06T18:10:37.740Z,23.20
2018-10-06T18:13:06.076Z,23.20
2018-10-06T18:15:34.417Z,23.20
2018-10-06T18:18:02.720Z,23.10
2018-10-06T18:20:31.091Z,23.10
2018-10-06T18:22:59.413Z,23.10
2018-10-06T18:25:27.704Z,23.00
2018-10-06T18:27:55.992Z,23.00
2018-10-06T18:30:24.316Z,23.00
2018-10-06T18:32:52.581Z,22.90
2018-10-06T18:35:21.136Z,22.90
2018-10-06T18:37:49.402Z,22.90
2018-10-06T18:40:17.692Z,22.90
2018-10-06T18:42:45.965Z,22.80
2018-10-06T18:45:14.257Z,22.80
2018-10-06T18:47:42.564Z,22.80
2018-10-06T18:50:11.209Z,22.70
2018-10-06T18:52:39.989Z,22.70
2018-10-06T18:55:08.435Z,22.70
2018-10-06T18:57:36.767Z,22.70
2018-10-06T19:00:05.478Z,22.70
2018-10-06T19:02:33.740Z,22.60
2018-10-06T19:05:02.045Z,22.60
2018-10-06T19:07:30.329Z,22.60
2018-10-06T19:09:58.764Z,22.50
2018-10-06T19:12:27.066Z,22.50
2018-10-06T19:14:55.372Z,22.40
2018-10-06T19:17:23.642Z,22.40
2018-10-06T19:19:51.930Z,22.40
2018-10-06T19:22:20.205Z,22.30
2018-10-06T19:24:48.737Z,22.30
2018-10-06T19:27:17.048Z,22.30
2018-10-06T19:29:45.377Z,22.20
2018-10-06T19:32:13.685Z,22.20
2018-10-06T19:34:42.018Z,22.20
2018-10-06T19:37:10.469Z,22.10
2018-10-06T19:39:38.782Z,22.10
2018-10-06T19:42:07.038Z,22.10
2018-10-06T19:44:35.293Z,22.10
2018-10-06T19:47:03.573Z,22.00
2018-10-06T19:49:31.823Z,22.00
2018-10-06T19:52:00.137Z,22.00
2018-10-06T19:54:28.429Z,21.90
2018-10-06T19:56:56.730Z,21.90
2018-10-06T19:59:24.992Z,21.90
2018-10-06T20:01:53.265Z,21.90
2018-10-06T20:04:21.658Z,21.90
2018-10-06T20:06:49.861Z,21.80
2018-10-06T20:09:18.148Z,21.80
2018-10-06T20:11:46.425Z,21.70
2018-10-06T20:14:14.709Z,21.80
2018-10-06T20:16:43.027Z,21.70
2018-10-06T20:19:11.343Z,21.70
2018-10-06T20:21:39.633Z,21.60
2018-10-06T20:24:08.033Z,21.60
2018-10-06T20:26:36.402Z,21.60
2018-10-06T20:29:04.665Z,21.60
2018-10-06T20:31:32.931Z,21.50
2018-10-06T20:34:01.221Z,21.50
2018-10-06T20:36:29.660Z,21.50
2018-10-06T20:38:57.961Z,21.50
2018-10-06T20:41:26.210Z,21.50
2018-10-06T20:43:54.481Z,21.40
2018-10-06T20:46:23.635Z,21.40
2018-10-06T20:48:51.866Z,21.40
2018-10-06T20:51:20.289Z,21.40
2018-10-06T20:53:48.545Z,21.30
2018-10-06T20:56:16.810Z,21.30
2018-10-06T20:58:45.069Z,21.30
2018-10-06T21:01:13.321Z,21.20
2018-10-06T21:03:41.625Z,21.20
2018-10-06T21:06:09.854Z,21.20
2018-10-06T21:08:38.159Z,21.20
2018-10-06T21:11:06.495Z,21.20
2018-10-06T21:13:34.946Z,21.10
2018-10-06T21:16:03.205Z,21.10
2018-10-06T21:18:31.586Z,21.10
2018-10-06T21:20:59.965Z,21.10
2018-10-06T21:23:28.235Z,21.00
2018-10-06T21:25:56.558Z,21.00
2018-10-06T21:28:24.835Z,21.00
2018-10-06T21:30:53.125Z,21.00
2018-10-06T21:33:21.376Z,21.00
2018-10-06T21:35:49.666Z,20.90
2018-10-06T21:38:17.921Z,20.90
2018-10-06T21:40:46.189Z,20.90
2018-10-06T21:43:14.462Z,20.90
2018-10-06T21:45:42.727Z,20.90
2018-10-06T21:48:11.014Z,20.80
2018-10-06T21:50:39.291Z,20.80
2018-10-06T21:53:07.587Z,20.80
2018-10-06T21:55:35.836Z,20.80
2018-10-06T21:58:04.180Z,20.70
2018-10-06T22:00:32.434Z,20.70
2018-10-06T22:03:00.763Z,20.70
2018-10-06T22:05:29.038Z,20.60
2018-10-06T22:07:57.355Z,20.60
2018-10-06T22:10:25.594Z,20.60
2018-10-06T22:12:53.926Z,20.60
2018-10-06T22:15:22.326Z,20.60
2018-10-06T22:17:50.561Z,20.60
2018-10-06T22:20:18.865Z,20.60
2018-10-06T22:22:47.132Z,20.50
2018-10-06T22:25:15.401Z,20.50
2018-10-06T22:27:43.675Z,20.50
2018-10-06T22:30:11.967Z,20.50
2018-10-06T22:32:40.231Z,20.40
2018-10-06T22:35:08.538Z,20.40
2018-10-06T22:37:36.805Z,20.40
2018-10-06T22:40:05.071Z,20.40
2018-10-06T22:42:33.387Z,20.40
2018-10-06T22:45:01.631Z,20.40
2018-10-06T22:47:29.897Z,20.30
2018-10-06T22:49:58.197Z,20.30
2018-10-06T22:52:26.474Z,20.30
2018-10-06T22:54:54.750Z,20.30
2018-10-06T22:57:23.013Z,20.20
2018-10-06T22:59:51.292Z,20.20
2018-10-06T23:02:19.547Z,20.20
2018-10-06T23:04:47.833Z,20.20
2018-10-06T23:07:16.124Z,20.20
2018-10-06T23:09:44.397Z,20.20
2018-10-06T23:12:12.648Z,20.10
2018-10-06T23:14:40.920Z,20.10
2018-10-06T23:17:09.204Z,20.10
2018-10-06T23:19:37.505Z,20.10
2018-10-06T23:22:05.828Z,20.00
2018-10-06T23:24:34.109Z,20.00
2018-10-06T23:27:02.416Z,20.00
2018-10-06T23:29:30.694Z,20.00
2018-10-06T23:31:58.961Z,20.00
2018-10-06T23:34:27.229Z,20.00
2018-10-06T23:36:55.505Z,19.90
2018-10-06T23:39:23.785Z,20.00
2018-10-06T23:41:52.045Z,19.90
2018-10-06T23:44:20.307Z,19.90
2018-10-06T23:46:48.564Z,19.90
2018-10-06T23:49:16.837Z,19.80
2018-10-06T23:51:45.114Z,19.80
2018-10-06T23:54:13.383Z,19.90
2018-10-06T23:56:42.141Z,19.80
2018-10-06T23:59:10.425Z,19.80
